createdAt,value
2018-02-01T00:02:07.198Z,99067.67
2018-02-01T00:04:34.645Z,99071.08
2018-02-01T00:07:02.082Z,99075.94
2018-02-01T00:09:29.545Z,99066.55
2018-02-01T00:11:57.016Z,99062.63
2018-02-01T00:14:24.496Z,99079.02
2018-02-01T00:16:51.929Z,99082.27
2018-02-01T00:19:19.368Z,99089.09
2018-02-01T00:21:46.825Z,99090.81
2018-02-01T00:24:14.344Z,99093.26
2018-02-01T00:26:41.800Z,99095.45
2018-02-01T00:29:09.229Z,99095.20
2018-02-01T00:31:36.664Z,99087.65
2018-02-01T00:34:04.117Z,99089.11
2018-02-01T00:36:31.645Z,99078.45
2018-02-01T00:38:59.317Z,99068.95
2018-02-01T00:41:26.753Z,99058.63
2018-02-01T00:43:54.209Z,99056.66
2018-02-01T00:46:21.661Z,99055.60
2018-02-01T00:48:49.120Z,99052.94
2018-02-01T00:51:16.581Z,99058.84
2018-02-01T00:53:44.009Z,99072.48
2018-02-01T00:56:11.441Z,99074.80
2018-02-01T00:58:38.893Z,99069.36
2018-02-01T01:01:06.325Z,99061.94
2018-02-01T01:03:33.812Z,99070.00
2018-02-01T01:06:01.261Z,99068.03
2018-02-01T01:08:28.704Z,99061.72
2018-02-01T01:10:56.157Z,99070.91
2018-02-01T01:13:23.609Z,99067.86
2018-02-01T01:15:51.044Z,99073.31
2018-02-01T01:18:18.524Z,99071.41
2018-02-01T01:20:45.996Z,99077.43
2018-02-01T01:23:13.434Z,99072.92
2018-02-01T01:25:40.892Z,99081.13
2018-02-01T01:28:08.325Z,99080.47
2018-02-01T01:30:35.756Z,99090.49
2018-02-01T01:33:03.237Z,99089.70
2018-02-01T01:35:30.668Z,99089.53
2018-02-01T01:37:58.128Z,99087.70
2018-02-01T01:40:25.584Z,99086.48
2018-02-01T01:42:53.045Z,99093.77
2018-02-01T01:45:20.477Z,99098.95
2018-02-01T01:47:47.929Z,99098.33
2018-02-01T01:50:15.369Z,99086.94
2018-02-01T01:52:42.800Z,99083.63
2018-02-01T01:55:10.264Z,99079.14
2018-02-01T01:57:37.704Z,99080.83
2018-02-01T02:00:05.145Z,99079.08
2018-02-01T02:02:32.624Z,99091.23
2018-02-01T02:05:00.062Z,99089.56
2018-02-01T02:07:27.497Z,99089.54
2018-02-01T02:09:54.992Z,99084.43
2018-02-01T02:12:22.451Z,99074.80
2018-02-01T02:14:49.884Z,99074.53
2018-02-01T02:17:17.485Z,99068.17
2018-02-01T02:19:44.926Z,99060.64
2018-02-01T02:22:12.356Z,99053.50
2018-02-01T02:24:39.836Z,99051.06
2018-02-01T02:27:07.268Z,99050.92
2018-02-01T02:29:34.712Z,99053.11
2018-02-01T02:32:02.527Z,99056.19
2018-02-01T02:34:29.965Z,99057.83
2018-02-01T02:36:57.401Z,99064.45
2018-02-01T02:39:25.197Z,99069.59
2018-02-01T02:41:52.634Z,99065.44
2018-02-01T02:44:20.080Z,99053.45
2018-02-01T02:46:47.685Z,99040.11
2018-02-01T02:49:15.122Z,99044.85
2018-02-01T02:51:42.553Z,99058.14
2018-02-01T02:54:10.026Z,99056.37
2018-02-01T02:56:37.490Z,99069.92
2018-02-01T02:59:04.925Z,99068.50
2018-02-01T03:01:32.593Z,99075.23
2018-02-01T03:04:00.027Z,99077.18
2018-02-01T03:06:27.468Z,99070.53
2018-02-01T03:08:55.440Z,99066.02
2018-02-01T03:11:22.876Z,99067.30
2018-02-01T03:13:50.305Z,99072.14
2018-02-01T03:16:17.865Z,99070.89
2018-02-01T03:18:45.299Z,99072.64
2018-02-01T03:21:12.741Z,99077.40
2018-02-01T03:23:40.512Z,99077.59
2018-02-01T03:26:07.964Z,99073.12
2018-02-01T03:28:35.397Z,99080.41
2018-02-01T03:31:03.211Z,99084.11
2018-02-01T03:33:30.645Z,99093.63
2018-02-01T03:35:58.077Z,99089.77
2018-02-01T03:38:25.886Z,99082.54
2018-02-01T03:40:53.320Z,99066.80
2018-02-01T03:43:20.756Z,99064.22
2018-02-01T03:45:48.463Z,99065.02
2018-02-01T03:48:15.901Z,99069.71
2018-02-01T03:50:43.353Z,99070.83
2018-02-01T03:53:11.031Z,99071.00
2018-02-01T03:55:38.474Z,99071.39
2018-02-01T03:58:05.904Z,99075.66
2018-02-01T04:00:33.613Z,99076.80
2018-02-01T04:03:01.048Z,99079.85
2018-02-01T04:05:28.476Z,99075.55
2018-02-01T04:07:55.946Z,99076.52
2018-02-01T04:10:23.380Z,99079.44
2018-02-01T04:12:50.817Z,99080.51
2018-02-01T04:15:18.563Z,99075.60
2018-02-01T04:17:46.000Z,99074.22
2018-02-01T04:20:13.442Z,99065.98
2018-02-01T04:22:40.912Z,99059.56
2018-02-01T04:25:08.374Z,99057.41
2018-02-01T04:27:35.800Z,99058.02
2018-02-01T04:30:03.276Z,99069.73
2018-02-01T04:32:30.732Z,99065.95
2018-02-01T04:34:58.165Z,99072.47
2018-02-01T04:37:25.965Z,99070.61
2018-02-01T04:39:53.405Z,99068.67
2018-02-01T04:42:20.847Z,99083.02
2018-02-01T04:44:48.308Z,99085.14
2018-02-01T04:47:15.776Z,99082.80
2018-02-01T04:49:43.208Z,99079.04
2018-02-01T04:52:11.040Z,99067.87
2018-02-01T04:54:38.472Z,99060.52
2018-02-01T04:57:05.907Z,99063.11
2018-02-01T04:59:33.687Z,99060.27
2018-02-01T05:02:01.133Z,99064.06
2018-02-01T05:04:28.573Z,99068.19
2018-02-01T05:06:56.163Z,99082.53
2018-02-01T05:09:23.625Z,99093.87
2018-02-01T05:11:51.065Z,99091.17
2018-02-01T05:14:18.568Z,99100.16
2018-02-01T05:16:46.001Z,99095.74
2018-02-01T05:19:13.433Z,99099.45
2018-02-01T05:21:40.920Z,99087.52
2018-02-01T05:24:08.377Z,99087.41
2018-02-01T05:26:35.829Z,99078.55
2018-02-01T05:29:03.291Z,99068.69
2018-02-01T05:31:30.724Z,99067.59
2018-02-01T05:33:58.153Z,99058.80
2018-02-01T05:36:25.948Z,99064.75
2018-02-01T05:38:53.384Z,99055.36
2018-02-01T05:41:20.816Z,99048.79
2018-02-01T05:43:48.705Z,99056.67
2018-02-01T05:46:16.149Z,99062.37
2018-02-01T05:48:43.585Z,99065.28
2018-02-01T05:51:11.292Z,99057.94
2018-02-01T05:53:38.768Z,99060.97
2018-02-01T05:56:06.250Z,99064.84
2018-02-01T05:58:33.875Z,99073.47
2018-02-01T06:01:01.329Z,99080.31
2018-02-01T06:03:28.763Z,99075.16
2018-02-01T06:05:56.527Z,99077.95
2018-02-01T06:08:24.006Z,99082.34
2018-02-01T06:10:51.441Z,99087.27
2018-02-01T06:13:19.229Z,99084.02
2018-02-01T06:15:46.669Z,99082.50
2018-02-01T06:18:14.120Z,99084.95
2018-02-01T06:20:41.803Z,99081.52
2018-02-01T06:23:09.235Z,99092.33
2018-02-01T06:25:36.673Z,99087.36
2018-02-01T06:28:04.136Z,99089.61
2018-02-01T06:30:31.584Z,99097.56
2018-02-01T06:32:59.286Z,99090.97
2018-02-01T06:35:26.732Z,99086.41
2018-02-01T06:37:54.182Z,99075.86
2018-02-01T06:40:21.655Z,99077.48
2018-02-01T06:42:49.089Z,99074.91
2018-02-01T06:45:16.552Z,99075.62
2018-02-01T06:47:43.989Z,99073.62
2018-02-01T06:50:11.425Z,99072.64
2018-02-01T06:52:38.898Z,99072.23
2018-02-01T06:55:06.357Z,99074.29
2018-02-01T06:57:33.953Z,99071.37
2018-02-01T07:00:01.419Z,99074.84
2018-02-01T07:02:29.933Z,99075.80
2018-02-01T07:04:57.393Z,99073.22
2018-02-01T07:07:24.824Z,99069.50
2018-02-01T07:09:52.297Z,99068.88
2018-02-01T07:12:19.796Z,99074.33
2018-02-01T07:14:47.240Z,99079.81
2018-02-01T07:17:14.705Z,99078.56
2018-02-01T07:19:42.138Z,99082.63
2018-02-01T07:22:09.597Z,99094.95
2018-02-01T07:24:37.049Z,99091.42
2018-02-01T07:27:04.485Z,99099.50
2018-02-01T07:29:31.941Z,99105.47
2018-02-01T07:31:59.377Z,99111.31
2018-02-01T07:34:27.024Z,99112.69
2018-02-01T07:36:54.457Z,99120.27
2018-02-01T07:39:21.901Z,99118.97
2018-02-01T07:41:49.353Z,99122.47
2018-02-01T07:44:16.793Z,99123.92
2018-02-01T07:46:44.352Z,99131.94
2018-02-01T07:49:11.796Z,99131.25
2018-02-01T07:51:39.244Z,99123.70
2018-02-01T07:54:06.712Z,99128.03
2018-02-01T07:56:34.157Z,99127.44
2018-02-01T07:59:01.704Z,99120.86
2018-02-01T08:01:29.134Z,99131.28
2018-02-01T08:03:56.577Z,99133.86
2018-02-01T08:06:24.033Z,99133.31
2018-02-01T08:08:51.584Z,99144.19
2018-02-01T08:11:19.290Z,99140.88
2018-02-01T08:13:46.725Z,99144.20
2018-02-01T08:16:14.173Z,99141.30
2018-02-01T08:18:41.626Z,99130.80
2018-02-01T08:21:09.067Z,99132.37
2018-02-01T08:23:36.542Z,99138.55
2018-02-01T08:26:04.054Z,99140.96
2018-02-01T08:28:31.513Z,99132.05
2018-02-01T08:30:58.973Z,99140.16
2018-02-01T08:33:26.425Z,99142.47
2018-02-01T08:35:54.049Z,99140.81
2018-02-01T08:38:21.494Z,99133.45
2018-02-01T08:40:48.949Z,99135.94
2018-02-01T08:43:16.425Z,99136.38
2018-02-01T08:45:43.862Z,99139.74
2018-02-01T08:48:11.361Z,99139.20
2018-02-01T08:50:38.821Z,99141.14
2018-02-01T08:53:06.254Z,99140.86
2018-02-01T08:55:33.710Z,99143.27
2018-02-01T08:58:01.145Z,99139.11
2018-02-01T09:00:28.622Z,99137.73
2018-02-01T09:02:56.054Z,99132.17
2018-02-01T09:05:23.486Z,99136.91
2018-02-01T09:07:50.938Z,99131.55
2018-02-01T09:10:18.374Z,99134.23
2018-02-01T09:12:45.878Z,99139.83
2018-02-01T09:15:13.354Z,99134.82
2018-02-01T09:17:40.793Z,99140.34
2018-02-01T09:20:08.280Z,99144.49
2018-02-01T09:22:35.731Z,99145.61
2018-02-01T09:25:03.432Z,99142.37
2018-02-01T09:27:30.944Z,99147.52
2018-02-01T09:29:58.392Z,99149.00
2018-02-01T09:32:25.845Z,99148.23
2018-02-01T09:34:53.278Z,99150.95
2018-02-01T09:37:20.747Z,99150.63
2018-02-01T09:39:48.195Z,99154.63
2018-02-01T09:42:15.629Z,99159.95
2018-02-01T09:44:43.105Z,99162.92
2018-02-01T09:47:10.537Z,99168.54
2018-02-01T09:49:38.166Z,99175.92
2018-02-01T09:52:05.640Z,99170.70
2018-02-01T09:54:33.080Z,99167.79
2018-02-01T09:57:00.537Z,99173.03
2018-02-01T09:59:27.989Z,99178.74
2018-02-01T10:01:55.484Z,99183.54
2018-02-01T10:04:22.954Z,99187.73
2018-02-01T10:06:50.385Z,99186.73
2018-02-01T10:09:17.845Z,99191.23
2018-02-01T10:11:45.278Z,99196.64
2018-02-01T10:14:12.737Z,99200.65
2018-02-01T10:16:40.165Z,99207.56
2018-02-01T10:19:07.605Z,99203.75
2018-02-01T10:21:35.061Z,99202.73
2018-02-01T10:24:02.503Z,99193.91
2018-02-01T10:26:30.018Z,99197.09
2018-02-01T10:28:57.453Z,99190.47
2018-02-01T10:31:24.885Z,99190.23
2018-02-01T10:33:52.353Z,99183.78
2018-02-01T10:36:19.813Z,99189.62
2018-02-01T10:38:47.545Z,99191.89
2018-02-01T10:41:14.982Z,99186.33
2018-02-01T10:43:42.425Z,99184.38
2018-02-01T10:46:09.881Z,99190.67
2018-02-01T10:48:37.335Z,99193.16
2018-02-01T10:51:04.960Z,99187.58
2018-02-01T10:53:32.397Z,99190.31
2018-02-01T10:55:59.842Z,99185.58
2018-02-01T10:58:27.300Z,99175.50
2018-02-01T11:00:54.728Z,99172.25
2018-02-01T11:03:22.389Z,99180.72
2018-02-01T11:05:49.994Z,99176.83
2018-02-01T11:08:17.445Z,99167.23
2018-02-01T11:10:44.896Z,99170.30
2018-02-01T11:13:12.325Z,99177.64
2018-02-01T11:15:39.813Z,99174.52
2018-02-01T11:18:07.249Z,99174.41
2018-02-01T11:20:34.689Z,99170.49
2018-02-01T11:23:02.158Z,99159.69
2018-02-01T11:25:29.632Z,99173.95
2018-02-01T11:27:57.120Z,99159.36
2018-02-01T11:30:24.552Z,99168.02
2018-02-01T11:32:52.107Z,99158.22
2018-02-01T11:35:19.594Z,99146.52
2018-02-01T11:37:47.064Z,99148.52
2018-02-01T11:40:14.540Z,99152.51
2018-02-01T11:42:41.972Z,99151.99
2018-02-01T11:45:09.404Z,99146.05
2018-02-01T11:47:36.877Z,99144.17
2018-02-01T11:50:04.309Z,99137.95
2018-02-01T11:52:32.110Z,99128.48
2018-02-01T11:54:59.545Z,99121.86
2018-02-01T11:57:26.985Z,99123.20
2018-02-01T11:59:54.444Z,99119.34
2018-02-01T12:02:21.878Z,99111.16
2018-02-01T12:04:49.342Z,99124.08
2018-02-01T12:07:16.777Z,99113.75
2018-02-01T12:09:44.221Z,99116.84
2018-02-01T12:12:11.689Z,99106.23
2018-02-01T12:14:39.145Z,99105.44
2018-02-01T12:17:06.629Z,99098.80
2018-02-01T12:19:34.073Z,99090.22
2018-02-01T12:22:01.520Z,99095.53
2018-02-01T12:24:28.998Z,99090.65
2018-02-01T12:26:56.461Z,99101.94
2018-02-01T12:29:24.093Z,99099.30
2018-02-01T12:31:51.549Z,99100.84
2018-02-01T12:34:18.977Z,99103.42
2018-02-01T12:36:46.434Z,99094.86
2018-02-01T12:39:13.869Z,99101.46
2018-02-01T12:41:41.803Z,99100.30
2018-02-01T12:44:09.255Z,99102.98
2018-02-01T12:46:36.704Z,99101.25
2018-02-01T12:49:04.176Z,99098.41
2018-02-01T12:51:31.615Z,99101.13
2018-02-01T12:53:59.258Z,99092.08
2018-02-01T12:56:26.729Z,99099.98
2018-02-01T12:58:54.166Z,99094.86
2018-02-01T13:01:21.625Z,99100.57
2018-02-01T13:03:49.061Z,99098.14
2018-02-01T13:06:16.739Z,99090.08
2018-02-01T13:08:44.181Z,99099.81
2018-02-01T13:11:11.641Z,99096.77
2018-02-01T13:13:39.123Z,99097.34
2018-02-01T13:16:06.557Z,99094.22
2018-02-01T13:18:34.237Z,99086.63
2018-02-01T13:21:01.668Z,99084.09
2018-02-01T13:23:29.097Z,99081.91
2018-02-01T13:25:56.577Z,99081.05
2018-02-01T13:28:24.021Z,99082.67
2018-02-01T13:30:51.504Z,99078.20
2018-02-01T13:33:18.968Z,99073.75
2018-02-01T13:35:46.464Z,99080.79
2018-02-01T13:38:13.920Z,99077.89
2018-02-01T13:40:41.384Z,99074.50
2018-02-01T13:43:09.039Z,99077.36
2018-02-01T13:45:36.473Z,99078.55
2018-02-01T13:48:03.925Z,99079.27
2018-02-01T13:50:31.385Z,99079.22
2018-02-01T13:52:58.817Z,99074.72
2018-02-01T13:55:26.332Z,99079.16
2018-02-01T13:57:53.766Z,99077.69
2018-02-01T14:00:21.200Z,99075.23
2018-02-01T14:02:48.657Z,99070.70
2018-02-01T14:05:16.090Z,99072.78
2018-02-01T14:07:43.572Z,99070.68
2018-02-01T14:10:11.185Z,99068.89
2018-02-01T14:12:39.737Z,99069.73
2018-02-01T14:15:07.324Z,99074.88
2018-02-01T14:17:35.005Z,99075.08
2018-02-01T14:20:02.851Z,99080.40
2018-02-01T14:22:30.650Z,99083.23
2018-02-01T14:24:58.154Z,99089.95
2018-02-01T14:27:25.644Z,99080.46
2018-02-01T14:29:53.079Z,99086.57
2018-02-01T14:32:20.549Z,99090.90
2018-02-01T14:34:48.198Z,99088.62
2018-02-01T14:37:15.661Z,99095.52
2018-02-01T14:39:43.145Z,99089.14
2018-02-01T14:42:10.628Z,99091.97
2018-02-01T14:44:39.331Z,99083.88
2018-02-01T14:47:06.769Z,99090.97
2018-02-01T14:49:34.212Z,99086.61
2018-02-01T14:52:01.693Z,99086.09
2018-02-01T14:54:29.129Z,99087.75
2018-02-01T14:56:57.137Z,99090.06
2018-02-01T14:59:24.596Z,99080.16
2018-02-01T15:01:52.041Z,99079.17
2018-02-01T15:04:19.522Z,99081.70
2018-02-01T15:06:46.962Z,99082.41
2018-02-01T15:09:14.675Z,99087.58
2018-02-01T15:11:42.204Z,99086.07
2018-02-01T15:14:09.644Z,99089.17
2018-02-01T15:16:37.101Z,99092.27
2018-02-01T15:19:04.532Z,99095.66
2018-02-01T15:21:32.186Z,99095.12
2018-02-01T15:24:00.111Z,99095.59
2018-02-01T15:26:27.868Z,99092.75
2018-02-01T15:28:55.305Z,99089.88
2018-02-01T15:31:22.777Z,99083.73
2018-02-01T15:33:50.570Z,99087.58
2018-02-01T15:36:18.037Z,99086.91
2018-02-01T15:38:45.493Z,99094.26
2018-02-01T15:41:12.963Z,99091.12
2018-02-01T15:43:40.426Z,99090.94
2018-02-01T15:46:08.256Z,99094.31
2018-02-01T15:48:35.850Z,99103.23
2018-02-01T15:51:03.301Z,99094.50
2018-02-01T15:53:30.773Z,99098.16
2018-02-01T15:55:58.205Z,99096.10
2018-02-01T15:58:25.847Z,99098.32
2018-02-01T16:00:53.317Z,99104.10
2018-02-01T16:03:20.744Z,99107.39
2018-02-01T16:05:48.216Z,99103.66
2018-02-01T16:08:15.691Z,99100.92
2018-02-01T16:10:43.345Z,99104.08
2018-02-01T16:13:10.811Z,99101.53
2018-02-01T16:15:38.261Z,99099.70
2018-02-01T16:18:05.725Z,99107.63
2018-02-01T16:20:33.181Z,99106.69
2018-02-01T16:23:00.933Z,99109.90
2018-02-01T16:25:28.409Z,99106.88
2018-02-01T16:27:55.844Z,99110.64
2018-02-01T16:30:23.308Z,99112.78
2018-02-01T16:32:50.743Z,99116.20
2018-02-01T16:35:18.237Z,99114.53
2018-02-01T16:37:46.218Z,99116.11
2018-02-01T16:40:13.684Z,99115.51
2018-02-01T16:42:41.149Z,99123.17
2018-02-01T16:45:08.601Z,99118.61
2018-02-01T16:47:37.897Z,99127.67
2018-02-01T16:50:06.926Z,99128.24
2018-02-01T16:52:34.477Z,99130.27
2018-02-01T16:55:01.938Z,99137.38
2018-02-01T16:57:29.372Z,99137.70
2018-02-01T16:59:57.278Z,99143.00
2018-02-01T17:02:24.767Z,99150.22
2018-02-01T17:04:52.200Z,99160.91
2018-02-01T17:07:19.657Z,99161.97
2018-02-01T17:09:47.093Z,99172.17
2018-02-01T17:12:14.873Z,99186.63
2018-02-01T17:14:42.364Z,99179.26
2018-02-01T17:17:09.804Z,99193.53
2018-02-01T17:19:37.271Z,99197.44
2018-02-01T17:22:04.727Z,99189.16
2018-02-01T17:24:32.214Z,99191.06
2018-02-01T17:26:59.645Z,99187.08
2018-02-01T17:29:27.077Z,99180.16
2018-02-01T17:31:54.532Z,99182.27
2018-02-01T17:34:21.971Z,99170.39
2018-02-01T17:36:49.435Z,99185.66
2018-02-01T17:39:16.945Z,99191.61
2018-02-01T17:41:44.401Z,99194.73
2018-02-01T17:44:11.855Z,99197.49
2018-02-01T17:46:39.297Z,99198.77
2018-02-01T17:49:06.936Z,99194.97
2018-02-01T17:51:34.417Z,99200.42
2018-02-01T17:54:01.893Z,99196.13
2018-02-01T17:56:29.977Z,99201.56
2018-02-01T17:58:57.428Z,99201.64
2018-02-01T18:01:24.913Z,99196.66
2018-02-01T18:03:52.361Z,99198.05
2018-02-01T18:06:19.797Z,99193.28
2018-02-01T18:08:47.277Z,99194.62
2018-02-01T18:11:14.722Z,99193.09
2018-02-01T18:13:42.203Z,99197.31
2018-02-01T18:16:09.670Z,99199.55
2018-02-01T18:18:37.104Z,99209.80
2018-02-01T18:21:04.580Z,99210.86
2018-02-01T18:23:32.025Z,99212.75
2018-02-01T18:25:59.692Z,99224.31
2018-02-01T18:28:27.125Z,99237.20
2018-02-01T18:30:58.158Z,99241.44
2018-02-01T18:33:25.675Z,99246.10
2018-02-01T18:35:53.153Z,99243.00
2018-02-01T18:38:20.605Z,99245.72
2018-02-01T18:40:48.071Z,99246.09
2018-02-01T18:43:15.557Z,99252.14
2018-02-01T18:45:42.988Z,99253.96
2018-02-01T18:48:10.435Z,99259.34
2018-02-01T18:50:38.257Z,99264.13
2018-02-01T18:53:05.693Z,99272.25
2018-02-01T18:55:33.181Z,99273.00
2018-02-01T18:58:00.678Z,99267.98
2018-02-01T19:00:28.153Z,99269.67
2018-02-01T19:02:55.638Z,99273.66
2018-02-01T19:05:23.143Z,99278.45
2018-02-01T19:07:50.610Z,99274.25
2018-02-01T19:10:18.070Z,99269.72
2018-02-01T19:12:45.762Z,99271.91
2018-02-01T19:15:13.205Z,99270.98
2018-02-01T19:17:40.653Z,99265.33
2018-02-01T19:20:08.108Z,99272.02
2018-02-01T19:22:35.593Z,99282.98
2018-02-01T19:25:03.062Z,99281.84
2018-02-01T19:27:30.506Z,99279.11
2018-02-01T19:29:57.953Z,99281.55
2018-02-01T19:32:25.445Z,99286.78
2018-02-01T19:34:53.207Z,99293.36
2018-02-01T19:37:20.968Z,99297.00
2018-02-01T19:39:48.533Z,99292.63
2018-02-01T19:42:16.022Z,99289.88
2018-02-01T19:44:43.567Z,99296.98
2018-02-01T19:47:11.929Z,99296.50
2018-02-01T19:49:39.421Z,99288.65
2018-02-01T19:52:06.870Z,99290.72
2018-02-01T19:54:34.304Z,99295.45
2018-02-01T19:57:01.787Z,99300.49
2018-02-01T19:59:29.221Z,99308.17
2018-02-01T20:01:56.697Z,99306.86
2018-02-01T20:04:24.134Z,99302.88
2018-02-01T20:06:51.569Z,99306.00
2018-02-01T20:09:19.064Z,99311.55
2018-02-01T20:11:46.602Z,99306.00
2018-02-01T20:14:14.222Z,99309.36
2018-02-01T20:16:41.668Z,99307.27
2018-02-01T20:19:09.105Z,99313.44
2018-02-01T20:21:36.585Z,99315.08
2018-02-01T20:24:04.040Z,99320.02
2018-02-01T20:26:32.413Z,99321.89
2018-02-01T20:28:59.870Z,99323.50
2018-02-01T20:31:27.357Z,99323.52
2018-02-01T20:33:54.903Z,99324.38
2018-02-01T20:36:22.341Z,99320.88
2018-02-01T20:38:49.804Z,99324.81
2018-02-01T20:41:17.293Z,99320.94
2018-02-01T20:43:44.732Z,99322.18
2018-02-01T20:46:12.193Z,99326.28
2018-02-01T20:48:39.624Z,99313.83
2018-02-01T20:51:07.094Z,99323.73
2018-02-01T20:53:34.545Z,99325.37
2018-02-01T20:56:02.014Z,99326.69
2018-02-01T20:58:29.523Z,99325.38
2018-02-01T21:00:56.977Z,99326.27
2018-02-01T21:03:24.457Z,99329.02
2018-02-01T21:05:51.936Z,99332.06
2018-02-01T21:08:19.373Z,99333.40
2018-02-01T21:10:46.839Z,99344.48
2018-02-01T21:13:14.273Z,99340.84
2018-02-01T21:15:41.741Z,99338.16
2018-02-01T21:18:09.170Z,99340.47
2018-02-01T21:20:36.604Z,99339.20
2018-02-01T21:23:04.060Z,99345.02
2018-02-01T21:25:31.498Z,99337.19
2018-02-01T21:27:59.395Z,99344.57
2018-02-01T21:30:26.840Z,99351.95
2018-02-01T21:32:54.288Z,99352.76
2018-02-01T21:35:21.749Z,99350.16
2018-02-01T21:37:49.235Z,99351.88
2018-02-01T21:40:16.837Z,99348.47
2018-02-01T21:42:44.369Z,99347.88
2018-02-01T21:45:11.843Z,99343.66
2018-02-01T21:47:39.325Z,99349.91
2018-02-01T21:50:06.794Z,99359.70
2018-02-01T21:52:34.426Z,99359.98
2018-02-01T21:55:01.868Z,99362.98
2018-02-01T21:57:29.297Z,99363.48
2018-02-01T21:59:56.757Z,99367.77
2018-02-01T22:02:24.188Z,99365.98
2018-02-01T22:04:51.644Z,99367.21
2018-02-01T22:07:19.080Z,99369.67
2018-02-01T22:09:46.549Z,99374.05
2018-02-01T22:12:14.027Z,99366.63
2018-02-01T22:14:41.525Z,99362.39
2018-02-01T22:17:09.193Z,99368.16
2018-02-01T22:19:36.624Z,99362.61
2018-02-01T22:22:04.057Z,99359.14
2018-02-01T22:24:31.581Z,99363.22
2018-02-01T22:26:59.050Z,99362.74
2018-02-01T22:29:26.697Z,99364.97
2018-02-01T22:31:54.160Z,99360.16
2018-02-01T22:34:21.595Z,99362.36
2018-02-01T22:36:49.110Z,99368.94
2018-02-01T22:39:16.540Z,99372.84
2018-02-01T22:41:44.498Z,99374.63
2018-02-01T22:44:11.934Z,99376.36
2018-02-01T22:46:39.373Z,99377.59
2018-02-01T22:49:06.840Z,99372.81
2018-02-01T22:51:34.289Z,99377.20
2018-02-01T22:54:01.877Z,99383.69
2018-02-01T22:56:29.313Z,99384.54
2018-02-01T22:58:56.752Z,99379.34
2018-02-01T23:01:24.204Z,99375.49
2018-02-01T23:03:51.641Z,99373.80
2018-02-01T23:06:19.372Z,99376.40
2018-02-01T23:08:46.848Z,99382.94
2018-02-01T23:11:14.296Z,99382.95
2018-02-01T23:13:41.777Z,99381.25
2018-02-01T23:16:09.256Z,99382.92
2018-02-01T23:18:36.939Z,99379.05
2018-02-01T23:21:04.402Z,99382.91
2018-02-01T23:23:31.838Z,99379.81
2018-02-01T23:25:59.295Z,99379.58
2018-02-01T23:28:26.729Z,99386.10
2018-02-01T23:30:54.468Z,99380.52
2018-02-01T23:33:21.897Z,99381.02
2018-02-01T23:35:49.333Z,99388.02
2018-02-01T23:38:16.801Z,99398.91
2018-02-01T23:40:44.244Z,99398.52
2018-02-01T23:43:11.724Z,99400.33
2018-02-01T23:45:39.161Z,99399.52
2018-02-01T23:48:06.592Z,99392.52
2018-02-01T23:50:34.045Z,99390.25
2018-02-01T23:53:01.488Z,99387.66
2018-02-01T23:55:29.198Z,99392.90
2018-02-01T23:57:56.632Z,99391.60
